Time;durP1;ratioP1;P1;durP2;ratioP2;P2;SDS_P1;SDS_P2;PMS_P1;PMS_P2;Temp;Humidity;BMP_temperature;BMP_pressure;BME280_temperature;BME280_humidity;BME280_pressure;Samples;Min_cycle;Max_cycle;Signal;HPM_P1;HPM_P2
2022/03/29 00:01:43;;;;;;;28.30;21.35;;;6.10;86.90;;;;;;5012985;28;20049;-44
2022/03/29 00:04:10;;;;;;;30.98;21.83;;;6.10;86.80;;;;;;5012797;28;20561;-46
2022/03/29 00:06:40;;;;;;;31.48;20.15;;;6.10;86.70;;;;;;5013064;28;20072;-46
2022/03/29 00:09:07;;;;;;;28.65;19.63;;;6.10;86.70;;;;;;5013643;28;20030;-44
2022/03/29 00:11:35;;;;;;;28.10;18.92;;;6.10;86.60;;;;;;5013669;28;20050;-45
2022/03/29 00:14:02;;;;;;;28.75;19.00;;;6.10;86.50;;;;;;5013861;28;20088;-45
2022/03/29 00:16:30;;;;;;;30.63;21.60;;;6.00;86.60;;;;;;5013509;28;20034;-44
2022/03/29 00:18:57;;;;;;;40.80;23.05;;;6.00;86.60;;;;;;5012476;28;20116;-45
2022/03/29 00:21:23;;;;;;;31.10;20.27;;;5.90;86.80;;;;;;5012044;28;20052;-46
2022/03/29 00:23:51;;;;;;;31.60;20.70;;;6.00;86.90;;;;;;5013719;28;20036;-45
2022/03/29 00:26:18;;;;;;;31.38;20.85;;;6.00;86.90;;;;;;4980102;28;20038;-45
2022/03/29 00:28:43;;;;;;;31.38;22.13;;;6.00;87.10;;;;;;5013354;28;20104;-45
2022/03/29 00:31:14;;;;;;;34.78;22.00;;;6.00;87.10;;;;;;5012274;28;20029;-48
2022/03/29 00:33:41;;;;;;;35.90;23.50;;;6.00;87.10;;;;;;5013559;28;20037;-45
2022/03/29 00:36:09;;;;;;;30.65;21.00;;;6.00;87.20;;;;;;5013790;28;20137;-46
2022/03/29 00:38:36;;;;;;;28.95;21.88;;;6.10;87.20;;;;;;5012223;28;20347;-49
2022/03/29 00:41:03;;;;;;;32.42;23.05;;;6.10;87.20;;;;;;5012892;28;20022;-43
2022/03/29 00:43:30;;;;;;;32.22;21.90;;;6.10;87.20;;;;;;5013161;28;20030;-43
2022/03/29 00:45:57;;;;;;;28.05;20.92;;;6.20;87.40;;;;;;5012999;28;20030;-45
2022/03/29 00:48:26;;;;;;;37.35;25.13;;;6.20;87.30;;;;;;5013362;28;20041;-44
2022/03/29 00:50:56;;;;;;;31.03;21.37;;;6.20;87.30;;;;;;5011802;28;20038;-44
2022/03/29 00:53:23;;;;;;;31.13;21.30;;;6.20;87.30;;;;;;4996118;28;20052;-45
2022/03/29 00:55:54;;;;;;;33.53;21.15;;;6.20;87.30;;;;;;5012625;28;20030;-44
2022/03/29 00:58:23;;;;;;;29.88;21.90;;;6.30;87.40;;;;;;5011674;28;20038;-45
2022/03/29 01:00:54;;;;;;;33.97;21.38;;;6.30;87.40;;;;;;4995756;28;20518;-45
2022/03/29 01:03:21;;;;;;;35.80;22.23;;;6.30;87.50;;;;;;5012471;28;20078;-45
2022/03/29 01:05:48;;;;;;;32.50;21.60;;;6.30;87.40;;;;;;5011920;28;20026;-45
2022/03/29 01:08:15;;;;;;;33.55;21.67;;;6.40;87.40;;;;;;5012656;28;20032;-44
2022/03/29 01:10:45;;;;;;;32.60;23.63;;;6.30;87.10;;;;;;5012323;28;20034;-44
2022/03/29 01:13:12;;;;;;;31.63;21.08;;;6.30;87.20;;;;;;4995591;28;20031;-45
2022/03/29 01:15:40;;;;;;;29.02;20.67;;;6.30;87.20;;;;;;4995925;28;20116;-44
2022/03/29 01:18:07;;;;;;;31.65;21.52;;;6.30;87.30;;;;;;5010871;28;20034;-44
2022/03/29 01:20:37;;;;;;;28.45;20.88;;;6.30;87.30;;;;;;5011119;28;20375;-46
2022/03/29 01:23:05;;;;;;;35.13;21.85;;;6.40;87.50;;;;;;4995198;28;20351;-43
2022/03/29 01:25:38;;;;;;;33.45;22.77;;;6.40;87.60;;;;;;5011458;28;20056;-44
2022/03/29 01:28:05;;;;;;;34.20;21.15;;;6.40;87.60;;;;;;4999841;28;20089;-44
2022/03/29 01:30:33;;;;;;;35.67;23.42;;;6.40;87.70;;;;;;5011462;28;20029;-45
2022/03/29 01:33:16;;;;;;;35.45;23.45;;;6.50;87.70;;;;;;5011953;28;20026;-45
2022/03/29 01:35:46;;;;;;;34.92;23.60;;;6.50;87.70;;;;;;5012143;28;20418;-45
2022/03/29 01:38:12;;;;;;;34.58;23.27;;;6.60;87.60;;;;;;5011702;28;20088;-45
2022/03/29 01:40:38;;;;;;;37.03;24.52;;;6.60;87.60;;;;;;5010522;28;20034;-46
2022/03/29 01:43:05;;;;;;;34.08;22.70;;;6.50;87.60;;;;;;5012144;28;20036;-44
2022/03/29 01:45:32;;;;;;;31.15;23.17;;;6.50;87.70;;;;;;5011810;28;20079;-44
2022/03/29 01:48:00;;;;;;;32.38;23.85;;;6.50;87.70;;;;;;5012103;28;20029;-44
2022/03/29 01:50:26;;;;;;;36.90;22.73;;;6.50;87.80;;;;;;5011732;28;20034;-46
2022/03/29 01:52:54;;;;;;;34.38;23.38;;;6.60;87.80;;;;;;5011004;28;20034;-44
2022/03/29 01:55:24;;;;;;;42.13;24.80;;;6.60;87.80;;;;;;5010594;28;20034;-44
2022/03/29 01:57:55;;;;;;;32.63;22.00;;;6.60;87.70;;;;;;5011596;28;20026;-46
2022/03/29 02:00:30;;;;;;;37.17;23.20;;;6.60;87.80;;;;;;5009749;28;20042;-46
2022/03/29 02:02:58;;;;;;;37.67;23.08;;;6.60;87.60;;;;;;4994263;28;20038;-44
2022/03/29 02:05:25;;;;;;;42.78;22.77;;;6.50;87.70;;;;;;5009783;28;20038;-47
2022/03/29 02:07:57;;;;;;;36.00;22.38;;;6.50;87.70;;;;;;5010687;28;20105;-44
2022/03/29 02:10:24;;;;;;;37.58;21.88;;;6.50;87.80;;;;;;5009341;28;20477;-47
2022/03/29 02:12:51;;;;;;;34.83;22.25;;;6.50;87.70;;;;;;5009383;28;20050;-44
2022/03/29 02:15:20;;;;;;;37.65;21.48;;;6.50;87.60;;;;;;5010842;28;20045;-44
2022/03/29 02:17:58;;;;;;;39.03;20.48;;;6.60;87.50;;;;;;5010658;28;20633;-45
2022/03/29 02:20:26;;;;;;;34.33;19.33;;;6.50;87.10;;;;;;5009967;28;20455;-45
2022/03/29 02:22:54;;;;;;;39.20;21.52;;;6.60;86.90;;;;;;5010433;28;20033;-45
2022/03/29 02:25:22;;;;;;;32.70;18.92;;;6.60;86.70;;;;;;5010341;28;20026;-46
2022/03/29 02:27:49;;;;;;;34.58;20.65;;;6.50;86.20;;;;;;5010743;28;20033;-44
2022/03/29 02:30:17;;;;;;;28.20;17.98;;;6.60;85.90;;;;;;5010602;28;20060;-45
2022/03/29 02:32:44;;;;;;;31.83;16.50;;;6.60;85.70;;;;;;5009660;28;20037;-45
2022/03/29 02:35:10;;;;;;;35.95;18.05;;;6.60;85.50;;;;;;5010087;28;20030;-46
2022/03/29 02:37:38;;;;;;;36.08;20.70;;;6.60;85.50;;;;;;5010172;28;20030;-45
2022/03/29 02:40:07;;;;;;;31.83;17.95;;;6.70;85.70;;;;;;5010235;28;20112;-45
2022/03/29 02:42:51;;;;;;;32.47;18.38;;;6.70;85.70;;;;;;5008738;28;20042;-45
2022/03/29 02:45:24;;;;;;;32.53;17.42;;;6.60;85.10;;;;;;5009169;28;20050;-43
2022/03/29 02:47:54;;;;;;;29.70;17.73;;;6.60;84.90;;;;;;5009945;28;20037;-45
2022/03/29 02:50:22;;;;;;;34.15;17.92;;;6.60;84.80;;;;;;5009563;28;20026;-45
2022/03/29 02:52:55;;;;;;;29.23;17.95;;;6.60;84.50;;;;;;4992702;28;20471;-45
2022/03/29 02:55:27;;;;;;;29.85;17.00;;;6.60;84.40;;;;;;5008814;28;20061;-46
2022/03/29 02:57:54;;;;;;;29.00;18.08;;;6.60;84.30;;;;;;5009587;28;20327;-46
2022/03/29 03:00:23;;;;;;;30.98;18.02;;;6.60;84.20;;;;;;5008864;28;20048;-45
2022/03/29 03:02:55;;;;;;;30.52;18.33;;;6.70;84.20;;;;;;5009850;28;20026;-44
2022/03/29 03:05:25;;;;;;;28.45;16.88;;;6.70;84.20;;;;;;5008287;28;20044;-44
2022/03/29 03:07:52;;;;;;;28.95;17.00;;;6.70;84.20;;;;;;5020885;28;20041;-46
2022/03/29 03:10:20;;;;;;;32.05;16.63;;;6.70;84.20;;;;;;5009552;28;20046;-45
2022/03/29 03:12:50;;;;;;;26.40;13.15;;;6.70;84.00;;;;;;5009001;28;20026;-44
2022/03/29 03:15:24;;;;;;;32.70;12.63;;;6.70;84.10;;;;;;5008734;28;20091;-47
2022/03/29 03:17:53;;;;;;;32.70;12.02;;;6.70;84.20;;;;;;5009157;28;20045;-48
2022/03/29 03:20:21;;;;;;;35.78;13.80;;;6.70;84.50;;;;;;5023994;28;20058;-47
2022/03/29 03:22:51;;;;;;;27.15;13.02;;;6.70;84.60;;;;;;5008753;28;20030;-47
2022/03/29 03:25:17;;;;;;;;;;;6.70;84.80;;;;;;5010308;28;20045;-44
2022/03/29 03:27:44;;;;;;;26.63;10.27;;;6.70;84.80;;;;;;5008872;28;19924;-44
2022/03/29 03:30:16;;;;;;;22.38;9.85;;;6.70;85.00;;;;;;5009313;28;20575;-45
2022/03/29 03:32:45;;;;;;;19.65;10.85;;;6.70;85.10;;;;;;5009847;28;20037;-45
2022/03/29 03:35:13;;;;;;;27.13;9.63;;;6.70;85.10;;;;;;5008463;28;20073;-44
2022/03/29 03:37:40;;;;;;;25.92;9.32;;;6.70;85.10;;;;;;5008756;28;20036;-45
2022/03/29 03:40:10;;;;;;;18.75;6.40;;;6.70;85.10;;;;;;5009958;28;20320;-44
2022/03/29 03:42:38;;;;;;;18.23;6.07;;;6.60;84.70;;;;;;5009998;28;20026;-45
2022/03/29 03:45:06;;;;;;;19.67;6.10;;;6.50;84.60;;;;;;5009518;28;20470;-45
2022/03/29 03:47:33;;;;;;;22.83;6.00;;;6.50;84.60;;;;;;4990520;28;20053;-45
2022/03/29 03:50:01;;;;;;;25.85;7.05;;;6.50;84.40;;;;;;5010373;28;20033;-45
2022/03/29 03:52:28;;;;;;;23.58;6.85;;;6.50;84.50;;;;;;4992424;28;20091;-46
2022/03/29 03:54:56;;;;;;;16.00;5.72;;;6.50;84.50;;;;;;5010196;28;20033;-45
2022/03/29 03:57:34;;;;;;;26.88;9.75;;;6.50;84.50;;;;;;5009971;28;20391;-45
2022/03/29 04:00:01;;;;;;;18.80;6.07;;;6.50;84.70;;;;;;5009834;28;20092;-46
2022/03/29 04:02:28;;;;;;;23.23;5.82;;;6.50;84.60;;;;;;5008941;28;20061;-44
2022/03/29 04:04:54;;;;;;;18.70;5.63;;;6.50;84.70;;;;;;5010187;28;20331;-45
2022/03/29 04:07:20;;;;;;;19.33;5.25;;;6.40;84.50;;;;;;5009793;28;20045;-45
2022/03/29 04:09:47;;;;;;;17.83;6.03;;;6.40;84.50;;;;;;5010149;28;20034;-44
2022/03/29 04:12:17;;;;;;;25.02;6.72;;;6.40;84.60;;;;;;5010259;28;20124;-45
2022/03/29 04:14:43;;;;;;;26.48;6.13;;;6.40;84.40;;;;;;5010210;28;20034;-44
2022/03/29 04:17:11;;;;;;;15.63;5.80;;;6.40;84.50;;;;;;5008976;28;20032;-45
2022/03/29 04:19:39;;;;;;;20.00;6.15;;;6.40;84.60;;;;;;5009786;28;20038;-44
2022/03/29 04:22:10;;;;;;;20.90;8.15;;;6.40;84.50;;;;;;5009402;28;20174;-45
2022/03/29 04:24:35;;;;;;;20.88;7.32;;;6.40;83.80;;;;;;5010017;28;20029;-44
2022/03/29 04:27:03;;;;;;;34.60;8.98;;;6.30;83.10;;;;;;5008826;28;20320;-45
2022/03/29 04:29:31;;;;;;;17.02;8.52;;;6.30;82.70;;;;;;5008954;28;20029;-46
2022/03/29 04:31:57;;;;;;;19.10;6.13;;;6.30;82.50;;;;;;5009102;28;20034;-46
2022/03/29 04:34:23;;;;;;;12.90;5.78;;;6.30;82.40;;;;;;5012685;28;20091;-44
2022/03/29 04:36:50;;;;;;;18.55;6.38;;;6.30;82.50;;;;;;5013311;28;20038;-44
2022/03/29 04:39:17;;;;;;;19.35;6.47;;;6.30;82.60;;;;;;5013510;28;20049;-44
2022/03/29 04:41:44;;;;;;;19.67;6.10;;;6.40;83.00;;;;;;4995944;28;20038;-44
2022/03/29 04:44:11;;;;;;;18.42;6.03;;;6.30;83.10;;;;;;5013444;28;20125;-46
2022/03/29 04:46:39;;;;;;;22.27;6.72;;;6.40;83.10;;;;;;5013140;28;20072;-44
2022/03/29 04:49:06;;;;;;;21.52;7.32;;;6.30;82.90;;;;;;5011708;28;20065;-44
2022/03/29 04:51:34;;;;;;;20.58;5.95;;;6.20;82.70;;;;;;5012268;28;20080;-45
2022/03/29 04:54:01;;;;;;;18.75;7.00;;;6.30;82.90;;;;;;5012602;28;20038;-44
2022/03/29 04:56:30;;;;;;;20.58;8.05;;;6.30;82.70;;;;;;5013112;28;20029;-44
2022/03/29 04:58:57;;;;;;;21.75;7.32;;;6.30;82.70;;;;;;5011687;28;20036;-45
2022/03/29 05:01:24;;;;;;;20.13;7.88;;;6.30;82.70;;;;;;5011330;28;20018;-44
2022/03/29 05:03:50;;;;;;;23.33;6.55;;;6.30;82.80;;;;;;5011764;28;20022;-45
2022/03/29 05:06:15;;;;;;;19.30;8.00;;;6.30;82.80;;;;;;5011568;28;20022;-45
2022/03/29 05:08:43;;;;;;;18.85;6.43;;;6.30;83.00;;;;;;5013001;28;20479;-45
2022/03/29 05:11:10;;;;;;;21.88;6.88;;;6.30;82.80;;;;;;5012511;28;20048;-45
2022/03/29 05:13:38;;;;;;;24.25;6.68;;;6.30;82.80;;;;;;5012685;28;20038;-44
2022/03/29 05:16:04;;;;;;;19.67;5.45;;;6.30;82.40;;;;;;5011533;28;20328;-45
2022/03/29 05:18:35;;;;;;;16.58;5.97;;;6.30;82.40;;;;;;5012420;28;20499;-45
2022/03/29 05:21:02;;;;;;;16.13;4.80;;;6.30;82.30;;;;;;5012042;28;20080;-44
2022/03/29 05:23:31;;;;;;;20.58;6.30;;;6.30;82.40;;;;;;5012135;28;20025;-44
2022/03/29 05:25:58;;;;;;;13.25;5.18;;;6.30;82.20;;;;;;5012316;28;20374;-49
2022/03/29 05:28:25;;;;;;;20.77;5.70;;;6.30;82.10;;;;;;4994700;28;20375;-43
2022/03/29 05:30:52;;;;;;;25.17;6.32;;;6.30;82.00;;;;;;5012623;28;20115;-45
2022/03/29 05:33:21;;;;;;;16.60;6.38;;;6.30;82.20;;;;;;5012201;28;20026;-49
2022/03/29 05:35:47;;;;;;;18.00;5.30;;;6.30;82.20;;;;;;4994935;28;20038;-43
2022/03/29 05:38:23;;;;;;;21.23;6.85;;;6.30;81.80;;;;;;5011625;28;20032;-46
2022/03/29 05:40:49;;;;;;;17.40;5.57;;;6.30;81.80;;;;;;5011261;28;20034;-47
2022/03/29 05:43:17;;;;;;;19.10;7.55;;;6.30;81.70;;;;;;5011583;28;20048;-46
2022/03/29 05:48:51;;;;;;;21.83;6.00;;;6.30;81.50;;;;;;5011759;28;20044;-45
2022/03/29 05:51:19;;;;;;;20.52;5.35;;;6.30;80.80;;;;;;5011756;28;20032;-44
2022/03/29 05:53:47;;;;;;;19.48;6.47;;;6.30;80.60;;;;;;5011446;28;20026;-47
2022/03/29 05:56:15;;;;;;;21.17;5.63;;;6.40;80.70;;;;;;5011840;28;20101;-47
2022/03/29 05:58:43;;;;;;;25.20;6.55;;;6.40;80.40;;;;;;5011547;28;20037;-49
2022/03/29 06:01:10;;;;;;;22.70;5.72;;;6.40;80.50;;;;;;5009724;28;20077;-46
2022/03/29 06:03:37;;;;;;;22.40;6.65;;;6.40;80.30;;;;;;5010152;28;20022;-44
2022/03/29 06:06:03;;;;;;;20.45;6.07;;;6.40;80.10;;;;;;5010367;28;20033;-46
2022/03/29 06:08:30;;;;;;;18.13;4.68;;;6.50;80.00;;;;;;5011898;28;20030;-46
2022/03/29 06:10:59;;;;;;;19.17;4.95;;;6.50;80.60;;;;;;5010315;28;20037;-43
2022/03/29 06:13:28;;;;;;;26.08;6.30;;;6.40;80.50;;;;;;5011140;28;20029;-43
2022/03/29 06:15:55;;;;;;;20.38;4.63;;;6.50;80.80;;;;;;5010088;28;20509;-44
2022/03/29 06:18:22;;;;;;;12.35;3.80;;;6.60;81.10;;;;;;5011117;28;20034;-43
2022/03/29 06:20:49;;;;;;;15.32;4.28;;;6.60;80.10;;;;;;5010665;28;20049;-44
2022/03/29 06:23:16;;;;;;;27.15;4.03;;;6.60;78.20;;;;;;5009814;28;20119;-44
2022/03/29 06:25:46;;;;;;;22.55;5.20;;;6.50;77.70;;;;;;5011290;28;20025;-44
2022/03/29 06:28:13;;;;;;;20.90;4.60;;;6.60;77.10;;;;;;5011228;28;20406;-44
2022/03/29 06:30:40;;;;;;;18.83;5.63;;;6.60;77.20;;;;;;5011147;28;20065;-44
2022/03/29 06:33:05;;;;;;;16.83;3.95;;;6.70;77.70;;;;;;5006814;28;20041;-45
2022/03/29 06:35:32;;;;;;;19.05;5.18;;;6.70;78.00;;;;;;5010393;28;20017;-46
2022/03/29 06:37:59;;;;;;;21.92;5.18;;;6.70;77.80;;;;;;5010774;28;20100;-44
2022/03/29 06:40:28;;;;;;;18.85;4.07;;;6.80;78.30;;;;;;5009004;28;20360;-44
2022/03/29 06:42:57;;;;;;;19.33;5.25;;;6.80;77.30;;;;;;5009855;28;20120;-43
2022/03/29 06:45:24;;;;;;;16.25;3.65;;;6.70;76.30;;;;;;5010142;28;20057;-45
2022/03/29 06:47:54;;;;;;;17.63;3.40;;;6.70;76.50;;;;;;5010850;28;20109;-44
2022/03/29 06:50:21;;;;;;;14.93;4.22;;;6.70;76.50;;;;;;5010873;28;20049;-44
2022/03/29 06:52:48;;;;;;;16.83;4.55;;;6.70;76.20;;;;;;4976693;28;20044;-46
2022/03/29 06:55:17;;;;;;;22.55;4.95;;;6.90;75.70;;;;;;5010107;28;20057;-46
2022/03/29 06:57:43;;;;;;;22.05;4.05;;;7.00;75.30;;;;;;5009781;28;20037;-44
2022/03/29 07:00:20;;;;;;;24.40;4.68;;;7.10;74.40;;;;;;5009247;28;20046;-47
2022/03/29 07:03:10;;;;;;;12.27;2.92;;;7.20;74.50;;;;;;5009517;28;20371;-44
2022/03/29 07:05:38;;;;;;;23.90;4.15;;;7.20;74.40;;;;;;5009712;28;20034;-45
2022/03/29 07:08:05;;;;;;;21.58;3.78;;;7.10;74.20;;;;;;5010795;28;20057;-48
2022/03/29 07:13:21;;;;;;;16.13;4.10;;;7.40;73.80;;;;;;5010039;28;20091;-43
2022/03/29 07:15:49;;;;;;;20.63;3.78;;;7.50;73.50;;;;;;5010802;28;20080;-44
2022/03/29 07:18:15;;;;;;;16.02;5.13;;;7.80;73.10;;;;;;5009437;28;20581;-48
2022/03/29 07:20:44;;;;;;;17.58;4.65;;;7.80;72.10;;;;;;5009825;28;20061;-45
2022/03/29 07:23:12;;;;;;;30.17;5.40;;;7.70;71.90;;;;;;5009977;28;20041;-49
2022/03/29 07:25:40;;;;;;;13.55;3.08;;;7.60;72.40;;;;;;5009291;28;20030;-44
2022/03/29 07:28:12;;;;;;;18.77;4.80;;;7.60;70.90;;;;;;5010245;28;20116;-45
2022/03/29 07:30:43;;;;;;;14.45;3.28;;;7.60;71.40;;;;;;5010298;28;20057;-43
2022/03/29 07:33:11;;;;;;;21.70;3.72;;;7.80;71.80;;;;;;5009674;28;20045;-44
2022/03/29 07:35:39;;;;;;;15.80;4.05;;;8.00;72.50;;;;;;5009275;28;20463;-43
2022/03/29 07:38:09;;;;;;;10.95;3.67;;;7.90;71.00;;;;;;5008590;28;20042;-47
2022/03/29 07:40:37;;;;;;;23.65;5.40;;;7.90;71.30;;;;;;5009360;28;20041;-48
2022/03/29 07:43:09;;;;;;;18.17;4.35;;;7.70;71.70;;;;;;5010002;28;20105;-43
2022/03/29 07:45:36;;;;;;;25.85;5.55;;;7.60;72.00;;;;;;5009285;28;20376;-45
2022/03/29 07:48:05;;;;;;;24.55;4.30;;;7.60;71.80;;;;;;5010141;28;20036;-45
2022/03/29 07:50:33;;;;;;;29.75;5.47;;;7.60;72.40;;;;;;4992364;28;20134;-43
2022/03/29 07:53:06;;;;;;;20.63;3.80;;;7.80;72.60;;;;;;5008150;28;20046;-45
2022/03/29 07:55:39;;;;;;;22.85;4.47;;;8.20;72.10;;;;;;5009253;28;20037;-46
2022/03/29 07:58:08;;;;;;;20.63;4.15;;;8.30;70.50;;;;;;5009495;28;20033;-44
2022/03/29 08:00:39;;;;;;;17.95;5.38;;;8.30;71.10;;;;;;5008973;28;20057;-47
2022/03/29 08:03:15;;;;;;;18.20;3.92;;;8.30;71.70;;;;;;5008772;28;20063;-46
2022/03/29 08:05:47;;;;;;;21.08;4.25;;;8.20;71.90;;;;;;5009945;28;20018;-46
2022/03/29 08:08:16;;;;;;;18.52;4.03;;;8.20;71.60;;;;;;5010950;28;20068;-46
2022/03/29 08:10:43;;;;;;;22.45;3.80;;;8.30;71.50;;;;;;5013121;28;20038;-43
2022/03/29 08:13:11;;;;;;;21.50;4.93;;;8.20;71.00;;;;;;4996466;28;20040;-44
2022/03/29 08:15:39;;;;;;;20.95;5.82;;;8.20;70.60;;;;;;5013728;28;20382;-44
2022/03/29 08:18:07;;;;;;;13.65;3.97;;;8.10;70.60;;;;;;5012059;28;20061;-43
2022/03/29 08:20:38;;;;;;;19.30;3.97;;;8.00;71.90;;;;;;5011718;28;20053;-43
2022/03/29 08:23:07;;;;;;;15.77;3.70;;;8.00;71.10;;;;;;5012419;28;20058;-43
2022/03/29 08:25:37;;;;;;;17.70;4.50;;;8.00;70.60;;;;;;5012440;28;20096;-45
2022/03/29 08:28:05;;;;;;;16.67;6.35;;;8.00;70.90;;;;;;5013425;28;20036;-44
2022/03/29 08:30:33;;;;;;;18.10;4.07;;;8.20;70.50;;;;;;5012342;28;20487;-43
2022/03/29 08:33:01;;;;;;;19.25;4.43;;;8.30;70.10;;;;;;5009740;28;20069;-45
2022/03/29 08:35:30;;;;;;;15.70;4.00;;;8.40;70.90;;;;;;5013678;28;20096;-44
2022/03/29 08:38:00;;;;;;;14.20;3.53;;;8.40;69.60;;;;;;5012345;28;20088;-44
2022/03/29 08:40:28;;;;;;;16.00;3.35;;;8.40;69.40;;;;;;5013297;28;20471;-46
2022/03/29 08:42:57;;;;;;;14.40;3.67;;;8.40;70.20;;;;;;5012532;28;20049;-45
2022/03/29 08:45:26;;;;;;;;;;;8.40;69.60;;;;;;5012342;28;20467;-45
2022/03/29 08:47:56;;;;;;;15.45;4.07;;;8.40;69.80;;;;;;5012151;28;20227;-46
2022/03/29 08:50:24;;;;;;;27.45;4.25;;;8.50;70.30;;;;;;5010657;28;20079;-44
2022/03/29 08:52:52;;;;;;;17.38;5.22;;;8.50;68.40;;;;;;4995139;28;20048;-44
2022/03/29 08:55:22;;;;;;;9.50;3.05;;;8.60;68.40;;;;;;5011924;28;20030;-45
2022/03/29 08:57:54;;;;;;;15.73;4.38;;;8.90;68.00;;;;;;5007732;28;20022;-44
2022/03/29 09:00:26;;;;;;;13.73;4.07;;;8.80;67.20;;;;;;5011279;28;20371;-44
2022/03/29 09:02:53;;;;;;;9.80;3.97;;;8.90;67.30;;;;;;5010757;28;20049;-44
2022/03/29 09:05:29;;;;;;;15.30;5.63;;;8.90;65.80;;;;;;5011932;28;20068;-44
2022/03/29 09:08:09;;;;;;;16.42;5.32;;;8.80;67.20;;;;;;5010841;28;20041;-45
2022/03/29 09:10:54;;;;;;;13.15;4.68;;;8.80;67.90;;;;;;5012180;28;20034;-44
2022/03/29 09:13:29;;;;;;;12.45;4.85;;;8.80;67.80;;;;;;5011924;28;20041;-45
2022/03/29 09:16:02;;;;;;;29.00;6.03;;;8.80;68.10;;;;;;5012232;28;20183;-45
2022/03/29 09:18:34;;;;;;;15.60;4.63;;;8.70;68.40;;;;;;5012383;28;20053;-44
2022/03/29 09:21:17;;;;;;;18.40;5.30;;;8.70;68.20;;;;;;5011026;28;20052;-44
2022/03/29 09:24:06;;;;;;;15.23;3.60;;;8.60;68.00;;;;;;5010889;28;20336;-46
2022/03/29 09:26:32;;;;;;;15.55;4.05;;;8.60;68.80;;;;;;5010766;28;20391;-47
2022/03/29 09:29:11;;;;;;;18.73;7.03;;;8.60;70.10;;;;;;5011774;28;20073;-45
2022/03/29 09:31:40;;;;;;;13.57;4.20;;;8.60;69.90;;;;;;5011468;28;20069;-44
2022/03/29 09:34:28;;;;;;;20.08;4.75;;;8.60;69.60;;;;;;4994800;28;20030;-44
2022/03/29 09:36:55;;;;;;;18.88;4.30;;;8.50;69.70;;;;;;5011151;28;20025;-45
2022/03/29 09:39:41;;;;;;;22.10;3.83;;;8.40;69.70;;;;;;5011089;28;20040;-45
2022/03/29 09:42:17;;;;;;;14.77;4.13;;;8.40;70.20;;;;;;5026240;28;20117;-46
2022/03/29 09:44:45;;;;;;;9.98;4.40;;;8.40;70.00;;;;;;5011643;28;20026;-43
2022/03/29 09:47:15;;;;;;;15.02;5.18;;;8.50;68.90;;;;;;5010607;28;20030;-45
2022/03/29 09:50:02;;;;;;;11.25;4.68;;;8.50;67.50;;;;;;5011509;28;20072;-45
2022/03/29 09:52:37;;;;;;;19.73;5.50;;;8.40;68.60;;;;;;5009859;28;20100;-44
2022/03/29 09:55:09;;;;;;;15.63;3.72;;;8.60;69.10;;;;;;5010805;28;20100;-46
2022/03/29 09:58:01;;;;;;;12.85;4.03;;;8.60;68.60;;;;;;5010203;28;20069;-46
2022/03/29 10:00:44;;;;;;;12.95;4.55;;;8.70;67.90;;;;;;5011128;28;20068;-45
2022/03/29 10:03:11;;;;;;;10.30;5.22;;;8.60;67.70;;;;;;5010761;28;20125;-46
2022/03/29 10:05:42;;;;;;;11.43;5.05;;;8.70;68.20;;;;;;5011082;28;20030;-45
2022/03/29 10:10:58;;;;;;;15.20;6.68;;;8.70;68.80;;;;;;4991493;28;20100;-44
2022/03/29 10:13:25;;;;;;;13.02;4.43;;;8.80;68.90;;;;;;5009891;28;20071;-44
2022/03/29 10:15:54;;;;;;;15.27;4.40;;;8.90;69.20;;;;;;5011111;28;20044;-44
2022/03/29 10:18:25;;;;;;;13.50;4.43;;;8.70;69.20;;;;;;5009906;28;20444;-43
2022/03/29 10:20:52;;;;;;;13.15;4.28;;;8.60;69.40;;;;;;5009590;28;20057;-47
2022/03/29 10:23:29;;;;;;;9.55;4.03;;;8.50;68.30;;;;;;5009304;28;20447;-46
2022/03/29 10:25:57;;;;;;;14.18;4.65;;;8.40;69.70;;;;;;5009669;28;20112;-45
2022/03/29 10:28:28;;;;;;;13.43;5.63;;;8.40;70.00;;;;;;4993338;28;20034;-44
2022/03/29 10:30:57;;;;;;;14.95;4.28;;;8.40;68.90;;;;;;5009138;28;20443;-43
2022/03/29 10:33:31;;;;;;;14.07;4.55;;;8.40;70.30;;;;;;5010188;28;20022;-44
2022/03/29 10:36:12;;;;;;;8.63;3.10;;;8.40;69.40;;;;;;5010187;28;20334;-48
2022/03/29 10:38:49;;;;;;;8.25;3.42;;;8.50;69.90;;;;;;5008710;28;20643;-45
2022/03/29 10:41:30;;;;;;;10.10;4.18;;;8.50;69.30;;;;;;5010423;28;20030;-47
2022/03/29 10:44:15;;;;;;;11.98;3.85;;;8.60;70.10;;;;;;5009440;28;20064;-44
2022/03/29 10:46:53;;;;;;;9.65;3.90;;;8.70;67.90;;;;;;5010244;28;20026;-45
2022/03/29 10:49:31;;;;;;;11.07;3.45;;;8.60;67.90;;;;;;5008537;28;20041;-45
2022/03/29 10:52:06;;;;;;;9.63;3.45;;;8.70;67.70;;;;;;5009331;28;20044;-43
2022/03/29 10:54:53;;;;;;;18.38;3.83;;;8.70;67.30;;;;;;5008874;28;20041;-45
2022/03/29 10:57:40;;;;;;;12.95;3.30;;;8.90;66.90;;;;;;5009354;28;20083;-43
2022/03/29 11:00:17;;;;;;;14.70;3.70;;;8.90;66.40;;;;;;5008482;28;20033;-44
2022/03/29 11:03:20;;;;;;;10.70;3.88;;;8.90;67.00;;;;;;5008197;28;20033;-43
2022/03/29 11:06:08;;;;;;;11.70;3.25;;;8.90;67.10;;;;;;5009020;28;20039;-44
2022/03/29 11:08:36;;;;;;;11.77;2.70;;;8.90;66.90;;;;;;5008535;28;20025;-44
2022/03/29 11:11:08;;;;;;;9.35;2.90;;;8.90;66.70;;;;;;5006048;28;20456;-47
2022/03/29 11:13:52;;;;;;;9.68;2.60;;;9.00;66.10;;;;;;5009011;28;20431;-44
2022/03/29 11:16:31;;;;;;;9.65;3.22;;;9.20;65.60;;;;;;5009029;28;20034;-49
2022/03/29 11:18:59;;;;;;;8.50;2.67;;;9.20;65.00;;;;;;5008891;28;20049;-48
2022/03/29 11:21:47;;;;;;;6.75;2.25;;;9.10;65.90;;;;;;5008504;28;20069;-44
2022/03/29 11:24:13;;;;;;;10.55;2.42;;;9.30;65.90;;;;;;5008661;28;20035;-44
2022/03/29 11:26:54;;;;;;;9.70;2.45;;;9.20;64.90;;;;;;5009815;28;20029;-46
2022/03/29 11:29:20;;;;;;;14.93;2.50;;;9.20;64.10;;;;;;5009148;28;20042;-44
2022/03/29 11:31:50;;;;;;;9.32;2.42;;;9.20;65.40;;;;;;5009178;28;20042;-47
2022/03/29 11:34:19;;;;;;;6.93;2.35;;;9.20;65.80;;;;;;5008345;28;20042;-48
2022/03/29 11:36:45;;;;;;;8.05;2.17;;;9.30;65.90;;;;;;5010082;28;20060;-44
2022/03/29 11:39:26;;;;;;;11.55;2.80;;;9.30;66.40;;;;;;5009704;28;20447;-45
2022/03/29 11:41:54;;;;;;;6.53;2.10;;;9.20;65.50;;;;;;5009698;28;20044;-45
2022/03/29 11:44:24;;;;;;;10.02;2.65;;;9.30;66.70;;;;;;4997104;28;20026;-46
2022/03/29 11:46:56;;;;;;;;;;;9.20;66.20;;;;;;5013729;28;20059;-44
2022/03/29 11:49:26;;;;;;;12.65;2.60;;;9.20;66.40;;;;;;5013670;28;19998;-44
2022/03/29 11:52:31;;;;;;;10.73;2.88;;;9.10;66.60;;;;;;4981092;28;20049;-45
2022/03/29 11:54:58;;;;;;;13.43;3.15;;;9.00;67.20;;;;;;5022353;28;20496;-45
2022/03/29 11:57:30;;;;;;;14.57;3.15;;;8.90;67.20;;;;;;5013683;28;20030;-45
2022/03/29 11:59:58;;;;;;;9.75;2.42;;;8.90;67.50;;;;;;4996606;28;20046;-44
2022/03/29 12:02:42;;;;;;;10.98;2.08;;;8.90;67.20;;;;;;4996228;28;20041;-45
2022/03/29 12:05:18;;;;;;;9.02;1.65;;;8.90;66.70;;;;;;5014092;28;20076;-45
2022/03/29 12:07:46;;;;;;;12.00;3.22;;;9.20;66.80;;;;;;5012654;28;20337;-45
2022/03/29 12:10:26;;;;;;;6.60;1.77;;;9.30;65.00;;;;;;5013756;28;20030;-44
2022/03/29 12:12:52;;;;;;;;;;;9.30;64.90;;;;;;5012809;28;20412;-47
2022/03/29 12:15:24;;;;;;;10.90;2.10;;;9.30;65.30;;;;;;5012817;28;19963;-45
2022/03/29 12:20:57;;;;;;;10.48;2.20;;;9.30;65.20;;;;;;5013412;28;20129;-43
2022/03/29 12:23:27;;;;;;;23.08;2.50;;;9.40;65.10;;;;;;5012772;28;20034;-45
2022/03/29 12:25:56;;;;;;;12.43;2.30;;;9.40;65.20;;;;;;5013366;28;20026;-44
2022/03/29 12:28:34;;;;;;;8.63;2.35;;;9.20;65.60;;;;;;5012202;28;20048;-44
2022/03/29 12:31:00;;;;;;;10.23;2.80;;;9.30;64.90;;;;;;5012833;28;20018;-43
2022/03/29 12:33:25;;;;;;;11.93;2.63;;;9.20;65.50;;;;;;5012348;28;20053;-43
2022/03/29 12:36:16;;;;;;;8.35;2.50;;;9.30;65.60;;;;;;4996359;28;20034;-43
2022/03/29 12:39:00;;;;;;;10.00;2.65;;;9.40;65.50;;;;;;5012582;28;20076;-45
2022/03/29 12:41:46;;;;;;;9.10;2.30;;;9.30;65.50;;;;;;5009021;28;20025;-44
2022/03/29 12:44:16;;;;;;;7.80;2.30;;;9.20;65.80;;;;;;5011732;28;20056;-44
2022/03/29 12:46:44;;;;;;;12.70;2.55;;;9.40;66.70;;;;;;5012182;28;20033;-44
2022/03/29 12:49:15;;;;;;;13.68;2.92;;;9.40;65.60;;;;;;5012115;28;20040;-47
2022/03/29 12:51:43;;;;;;;13.77;2.80;;;9.40;65.90;;;;;;5012771;28;20083;-45
2022/03/29 12:54:11;;;;;;;9.85;2.97;;;9.40;66.20;;;;;;5012274;28;20029;-44
2022/03/29 12:56:48;;;;;;;13.82;3.08;;;9.20;66.60;;;;;;5011391;28;20033;-44
2022/03/29 12:59:32;;;;;;;10.35;2.63;;;9.20;66.60;;;;;;5013001;28;20065;-44
2022/03/29 13:02:15;;;;;;;10.52;2.75;;;9.20;67.50;;;;;;5012396;28;20029;-44
2022/03/29 13:04:43;;;;;;;8.20;2.67;;;9.20;67.30;;;;;;5011611;28;20108;-44
2022/03/29 13:07:11;;;;;;;8.52;2.40;;;9.40;67.60;;;;;;5012333;28;20037;-44
2022/03/29 13:09:38;;;;;;;10.48;3.10;;;9.30;67.30;;;;;;5012275;28;20037;-46
2022/03/29 13:12:22;;;;;;;16.00;3.53;;;9.40;67.60;;;;;;5012459;28;20030;-43
2022/03/29 13:14:54;;;;;;;11.45;3.72;;;9.50;67.80;;;;;;5012551;28;20434;-44